Terminal Aerodrome Forecast
Issued by NWS Sterling, VA

Current Version | Previous Version | Text Only | Print | Product List | Glossary On
Versions: 1 2 3 4 5 6 7 8 9 10 11 12 13 14 15 16 17 18 19 20
000
FTUS41 KLWX 201735
TAFMRB
TAF
KMRB 201735Z 2018/2118 22005KT P6SM VCTS BKN050CB
     FM202300 17005KT P6SM BKN110
     FM210600 21004KT P6SM BKN140
     FM211500 26009KT P6SM BKN040=

USA.gov is the U.S. government's official web portal to all federal, state and local government web resources and services.